sensor_id;sensor_type;location;lat;lon;timestamp;P1;durP1;ratioP1;P2;durP2;ratioP2
5418;SDS011;2732;52.092;11.556;2022-10-28T00:00:16;9.17;;;5.60;;
5418;SDS011;2732;52.092;11.556;2022-10-28T00:05:17;9.77;;;5.57;;
5418;SDS011;2732;52.092;11.556;2022-10-28T00:10:18;9.13;;;5.43;;
5418;SDS011;2732;52.092;11.556;2022-10-28T00:15:18;11.07;;;6.07;;
5418;SDS011;2732;52.092;11.556;2022-10-28T00:20:19;9.30;;;6.03;;
5418;SDS011;2732;52.092;11.556;2022-10-28T00:25:20;11.33;;;6.00;;
5418;SDS011;2732;52.092;11.556;2022-10-28T00:30:23;15.67;;;5.17;;
5418;SDS011;2732;52.092;11.556;2022-10-28T00:35:24;10.50;;;6.17;;
5418;SDS011;2732;52.092;11.556;2022-10-28T00:40:25;9.87;;;5.83;;
5418;SDS011;2732;52.092;11.556;2022-10-28T00:45:25;9.70;;;6.50;;
5418;SDS011;2732;52.092;11.556;2022-10-28T00:55:37;11.77;;;6.00;;
5418;SDS011;2732;52.092;11.556;2022-10-28T01:00:38;7.33;;;6.63;;
5418;SDS011;2732;52.092;11.556;2022-10-28T01:05:40;10.83;;;5.60;;
5418;SDS011;2732;52.092;11.556;2022-10-28T01:16:34;14.53;;;5.90;;
5418;SDS011;2732;52.092;11.556;2022-10-28T01:22:15;12.70;;;5.70;;
5418;SDS011;2732;52.092;11.556;2022-10-28T01:33:20;10.10;;;5.90;;
5418;SDS011;2732;52.092;11.556;2022-10-28T01:43:48;8.90;;;5.47;;
5418;SDS011;2732;52.092;11.556;2022-10-28T01:54:16;8.13;;;5.83;;
5418;SDS011;2732;52.092;11.556;2022-10-28T01:59:22;11.33;;;6.30;;
5418;SDS011;2732;52.092;11.556;2022-10-28T02:04:26;10.17;;;5.47;;
5418;SDS011;2732;52.092;11.556;2022-10-28T02:20:26;6.80;;;5.20;;
5418;SDS011;2732;52.092;11.556;2022-10-28T02:25:50;8.60;;;6.17;;
5418;SDS011;2732;52.092;11.556;2022-10-28T02:31:26;9.00;;;5.30;;
5418;SDS011;2732;52.092;11.556;2022-10-28T02:36:31;11.13;;;5.40;;
5418;SDS011;2732;52.092;11.556;2022-10-28T02:47:05;8.27;;;5.10;;
5418;SDS011;2732;52.092;11.556;2022-10-28T02:52:12;8.90;;;5.87;;
5418;SDS011;2732;52.092;11.556;2022-10-28T02:57:16;10.90;;;5.47;;
5418;SDS011;2732;52.092;11.556;2022-10-28T03:02:22;13.53;;;4.80;;
5418;SDS011;2732;52.092;11.556;2022-10-28T03:07:23;8.20;;;4.60;;
5418;SDS011;2732;52.092;11.556;2022-10-28T03:12:24;12.70;;;4.93;;
5418;SDS011;2732;52.092;11.556;2022-10-28T03:17:24;7.77;;;4.80;;
5418;SDS011;2732;52.092;11.556;2022-10-28T03:22:25;6.27;;;5.03;;
5418;SDS011;2732;52.092;11.556;2022-10-28T03:27:26;12.03;;;6.17;;
5418;SDS011;2732;52.092;11.556;2022-10-28T03:32:26;11.13;;;5.57;;
5418;SDS011;2732;52.092;11.556;2022-10-28T03:37:27;12.53;;;5.37;;
5418;SDS011;2732;52.092;11.556;2022-10-28T03:42:28;9.20;;;4.43;;
5418;SDS011;2732;52.092;11.556;2022-10-28T03:47:28;8.43;;;5.43;;
5418;SDS011;2732;52.092;11.556;2022-10-28T03:52:29;8.87;;;5.63;;
5418;SDS011;2732;52.092;11.556;2022-10-28T03:57:30;7.20;;;5.97;;
5418;SDS011;2732;52.092;11.556;2022-10-28T04:02:32;9.00;;;6.90;;
5418;SDS011;2732;52.092;11.556;2022-10-28T04:07:33;12.70;;;7.43;;
5418;SDS011;2732;52.092;11.556;2022-10-28T04:12:34;11.40;;;6.50;;
5418;SDS011;2732;52.092;11.556;2022-10-28T04:17:35;27.07;;;6.77;;
5418;SDS011;2732;52.092;11.556;2022-10-28T04:22:35;16.63;;;7.50;;
5418;SDS011;2732;52.092;11.556;2022-10-28T04:27:36;9.90;;;5.80;;
5418;SDS011;2732;52.092;11.556;2022-10-28T04:32:37;15.70;;;6.83;;
5418;SDS011;2732;52.092;11.556;2022-10-28T04:37:39;13.23;;;6.27;;
5418;SDS011;2732;52.092;11.556;2022-10-28T04:42:40;10.53;;;6.40;;
5418;SDS011;2732;52.092;11.556;2022-10-28T04:47:41;11.20;;;7.47;;
5418;SDS011;2732;52.092;11.556;2022-10-28T04:52:41;16.70;;;6.50;;
5418;SDS011;2732;52.092;11.556;2022-10-28T04:57:42;11.63;;;6.50;;
5418;SDS011;2732;52.092;11.556;2022-10-28T05:02:42;8.90;;;6.00;;
5418;SDS011;2732;52.092;11.556;2022-10-28T05:07:43;14.30;;;6.10;;
5418;SDS011;2732;52.092;11.556;2022-10-28T05:12:44;15.50;;;6.30;;
5418;SDS011;2732;52.092;11.556;2022-10-28T05:17:45;14.27;;;5.90;;
5418;SDS011;2732;52.092;11.556;2022-10-28T05:22:47;15.60;;;7.23;;
5418;SDS011;2732;52.092;11.556;2022-10-28T05:27:51;12.17;;;6.23;;
5418;SDS011;2732;52.092;11.556;2022-10-28T05:32:57;12.03;;;6.47;;
5418;SDS011;2732;52.092;11.556;2022-10-28T05:38:00;13.77;;;5.57;;
5418;SDS011;2732;52.092;11.556;2022-10-28T05:43:01;8.20;;;5.80;;
5418;SDS011;2732;52.092;11.556;2022-10-28T05:48:02;14.00;;;5.87;;
5418;SDS011;2732;52.092;11.556;2022-10-28T05:53:03;15.93;;;6.43;;
5418;SDS011;2732;52.092;11.556;2022-10-28T05:58:04;10.07;;;6.00;;
5418;SDS011;2732;52.092;11.556;2022-10-28T06:03:05;24.77;;;7.10;;
5418;SDS011;2732;52.092;11.556;2022-10-28T06:08:11;11.10;;;6.23;;
5418;SDS011;2732;52.092;11.556;2022-10-28T06:13:12;11.57;;;6.07;;
5418;SDS011;2732;52.092;11.556;2022-10-28T06:18:13;10.80;;;6.30;;
5418;SDS011;2732;52.092;11.556;2022-10-28T06:23:14;12.90;;;6.60;;
5418;SDS011;2732;52.092;11.556;2022-10-28T06:28:14;14.30;;;5.53;;
5418;SDS011;2732;52.092;11.556;2022-10-28T06:33:15;7.87;;;5.00;;
5418;SDS011;2732;52.092;11.556;2022-10-28T06:38:16;15.27;;;7.00;;
5418;SDS011;2732;52.092;11.556;2022-10-28T06:43:17;12.70;;;5.20;;
5418;SDS011;2732;52.092;11.556;2022-10-28T06:48:18;14.63;;;5.33;;
5418;SDS011;2732;52.092;11.556;2022-10-28T06:53:18;9.00;;;5.00;;
5418;SDS011;2732;52.092;11.556;2022-10-28T06:58:19;8.50;;;4.60;;
5418;SDS011;2732;52.092;11.556;2022-10-28T07:03:20;8.27;;;4.83;;
5418;SDS011;2732;52.092;11.556;2022-10-28T07:08:21;14.10;;;5.70;;
5418;SDS011;2732;52.092;11.556;2022-10-28T07:13:22;6.90;;;4.40;;
5418;SDS011;2732;52.092;11.556;2022-10-28T07:18:25;15.50;;;5.37;;
5418;SDS011;2732;52.092;11.556;2022-10-28T07:23:28;13.40;;;6.40;;
5418;SDS011;2732;52.092;11.556;2022-10-28T07:28:31;20.40;;;6.00;;
5418;SDS011;2732;52.092;11.556;2022-10-28T07:33:32;12.33;;;6.00;;
5418;SDS011;2732;52.092;11.556;2022-10-28T07:38:33;24.57;;;5.90;;
5418;SDS011;2732;52.092;11.556;2022-10-28T07:43:35;9.80;;;5.90;;
5418;SDS011;2732;52.092;11.556;2022-10-28T07:48:37;15.10;;;5.53;;
5418;SDS011;2732;52.092;11.556;2022-10-28T07:53:39;9.97;;;5.50;;
5418;SDS011;2732;52.092;11.556;2022-10-28T07:58:41;9.80;;;5.00;;
5418;SDS011;2732;52.092;11.556;2022-10-28T08:03:43;15.20;;;5.70;;
5418;SDS011;2732;52.092;11.556;2022-10-28T08:08:45;13.40;;;6.00;;
5418;SDS011;2732;52.092;11.556;2022-10-28T08:13:47;7.47;;;4.53;;
5418;SDS011;2732;52.092;11.556;2022-10-28T08:18:48;12.00;;;5.03;;
5418;SDS011;2732;52.092;11.556;2022-10-28T08:23:49;12.57;;;4.33;;
5418;SDS011;2732;52.092;11.556;2022-10-28T08:28:50;15.80;;;5.00;;
5418;SDS011;2732;52.092;11.556;2022-10-28T08:33:51;17.43;;;4.77;;
5418;SDS011;2732;52.092;11.556;2022-10-28T08:38:52;9.27;;;4.93;;
5418;SDS011;2732;52.092;11.556;2022-10-28T08:44:02;10.07;;;5.80;;
5418;SDS011;2732;52.092;11.556;2022-10-28T08:49:45;16.53;;;6.23;;
5418;SDS011;2732;52.092;11.556;2022-10-28T09:00:16;14.23;;;5.90;;
5418;SDS011;2732;52.092;11.556;2022-10-28T09:05:20;16.90;;;5.70;;
5418;SDS011;2732;52.092;11.556;2022-10-28T09:10:48;11.03;;;5.60;;
5418;SDS011;2732;52.092;11.556;2022-10-28T09:16:31;23.93;;;6.43;;
5418;SDS011;2732;52.092;11.556;2022-10-28T09:21:47;12.70;;;5.73;;
5418;SDS011;2732;52.092;11.556;2022-10-28T09:27:20;25.07;;;6.07;;
5418;SDS011;2732;52.092;11.556;2022-10-28T09:32:29;17.20;;;5.70;;
5418;SDS011;2732;52.092;11.556;2022-10-28T09:37:44;15.63;;;4.63;;
5418;SDS011;2732;52.092;11.556;2022-10-28T09:48:27;19.03;;;5.03;;
5418;SDS011;2732;52.092;11.556;2022-10-28T09:58:44;9.10;;;3.30;;
5418;SDS011;2732;52.092;11.556;2022-10-28T10:03:46;20.63;;;4.77;;
5418;SDS011;2732;52.092;11.556;2022-10-28T10:08:48;10.33;;;5.50;;
5418;SDS011;2732;52.092;11.556;2022-10-28T10:13:49;12.70;;;4.60;;
5418;SDS011;2732;52.092;11.556;2022-10-28T10:18:52;11.83;;;5.00;;
5418;SDS011;2732;52.092;11.556;2022-10-28T10:23:58;14.47;;;5.57;;
5418;SDS011;2732;52.092;11.556;2022-10-28T10:28:59;10.43;;;3.73;;
5418;SDS011;2732;52.092;11.556;2022-10-28T10:34:00;8.90;;;3.67;;
5418;SDS011;2732;52.092;11.556;2022-10-28T10:39:01;6.23;;;3.90;;
5418;SDS011;2732;52.092;11.556;2022-10-28T10:49:22;6.97;;;3.67;;
5418;SDS011;2732;52.092;11.556;2022-10-28T10:54:23;12.30;;;3.67;;
5418;SDS011;2732;52.092;11.556;2022-10-28T10:59:29;12.40;;;3.00;;
5418;SDS011;2732;52.092;11.556;2022-10-28T11:04:30;9.30;;;3.00;;
5418;SDS011;2732;52.092;11.556;2022-10-28T11:09:36;13.30;;;3.20;;
5418;SDS011;2732;52.092;11.556;2022-10-28T11:14:52;13.57;;;3.60;;
5418;SDS011;2732;52.092;11.556;2022-10-28T11:19:59;3.37;;;2.97;;
5418;SDS011;2732;52.092;11.556;2022-10-28T11:30:54;7.43;;;2.50;;
5418;SDS011;2732;52.092;11.556;2022-10-28T11:36:14;5.83;;;3.00;;
5418;SDS011;2732;52.092;11.556;2022-10-28T12:03:28;10.20;;;2.77;;
5418;SDS011;2732;52.092;11.556;2022-10-28T12:14:26;7.93;;;2.33;;
5418;SDS011;2732;52.092;11.556;2022-10-28T12:20:02;15.00;;;2.60;;
5418;SDS011;2732;52.092;11.556;2022-10-28T12:25:07;13.83;;;2.70;;
5418;SDS011;2732;52.092;11.556;2022-10-28T12:30:18;11.00;;;2.77;;
5418;SDS011;2732;52.092;11.556;2022-10-28T12:35:24;11.77;;;2.50;;
5418;SDS011;2732;52.092;11.556;2022-10-28T12:40:38;8.73;;;1.53;;
5418;SDS011;2732;52.092;11.556;2022-10-28T12:45:47;10.20;;;2.37;;
5418;SDS011;2732;52.092;11.556;2022-10-28T12:50:54;4.30;;;2.17;;
5418;SDS011;2732;52.092;11.556;2022-10-28T12:56:07;12.43;;;3.20;;
5418;SDS011;2732;52.092;11.556;2022-10-28T13:01:23;7.80;;;2.07;;
5418;SDS011;2732;52.092;11.556;2022-10-28T13:06:38;12.40;;;2.33;;
5418;SDS011;2732;52.092;11.556;2022-10-28T13:17:34;17.93;;;3.10;;
5418;SDS011;2732;52.092;11.556;2022-10-28T13:22:58;10.37;;;2.00;;
5418;SDS011;2732;52.092;11.556;2022-10-28T13:28:14;10.73;;;2.40;;
5418;SDS011;2732;52.092;11.556;2022-10-28T13:33:19;8.10;;;2.53;;
5418;SDS011;2732;52.092;11.556;2022-10-28T13:38:24;8.20;;;2.87;;
5418;SDS011;2732;52.092;11.556;2022-10-28T13:54:32;10.07;;;2.20;;
5418;SDS011;2732;52.092;11.556;2022-10-28T13:59:49;7.87;;;2.00;;
5418;SDS011;2732;52.092;11.556;2022-10-28T14:04:59;11.07;;;2.60;;
5418;SDS011;2732;52.092;11.556;2022-10-28T14:10:25;15.73;;;1.80;;
5418;SDS011;2732;52.092;11.556;2022-10-28T14:15:34;11.30;;;2.10;;
5418;SDS011;2732;52.092;11.556;2022-10-28T14:42:21;9.53;;;2.60;;
5418;SDS011;2732;52.092;11.556;2022-10-28T14:53:36;12.47;;;2.57;;
5418;SDS011;2732;52.092;11.556;2022-10-28T14:58:41;7.93;;;2.97;;
5418;SDS011;2732;52.092;11.556;2022-10-28T15:03:44;13.60;;;2.30;;
5418;SDS011;2732;52.092;11.556;2022-10-28T15:08:47;9.00;;;2.70;;
5418;SDS011;2732;52.092;11.556;2022-10-28T15:13:51;11.60;;;2.60;;
5418;SDS011;2732;52.092;11.556;2022-10-28T15:18:53;16.03;;;2.63;;
5418;SDS011;2732;52.092;11.556;2022-10-28T15:24:00;11.00;;;2.47;;
5418;SDS011;2732;52.092;11.556;2022-10-28T15:29:01;4.50;;;2.50;;
5418;SDS011;2732;52.092;11.556;2022-10-28T15:34:01;13.73;;;2.70;;
5418;SDS011;2732;52.092;11.556;2022-10-28T15:39:06;14.17;;;2.63;;
5418;SDS011;2732;52.092;11.556;2022-10-28T15:44:24;14.73;;;2.70;;
5418;SDS011;2732;52.092;11.556;2022-10-28T15:49:33;15.40;;;3.30;;
5418;SDS011;2732;52.092;11.556;2022-10-28T15:54:38;11.03;;;3.27;;
5418;SDS011;2732;52.092;11.556;2022-10-28T15:59:40;11.87;;;2.60;;
5418;SDS011;2732;52.092;11.556;2022-10-28T16:04:41;16.43;;;2.70;;
5418;SDS011;2732;52.092;11.556;2022-10-28T16:09:44;13.33;;;2.70;;
5418;SDS011;2732;52.092;11.556;2022-10-28T16:14:47;15.90;;;2.97;;
5418;SDS011;2732;52.092;11.556;2022-10-28T16:25:01;16.57;;;2.50;;
5418;SDS011;2732;52.092;11.556;2022-10-28T16:30:11;5.77;;;2.80;;
5418;SDS011;2732;52.092;11.556;2022-10-28T16:35:22;14.20;;;3.00;;
5418;SDS011;2732;52.092;11.556;2022-10-28T16:40:23;14.97;;;4.03;;
5418;SDS011;2732;52.092;11.556;2022-10-28T16:45:24;16.03;;;3.93;;
5418;SDS011;2732;52.092;11.556;2022-10-28T16:50:24;15.07;;;3.23;;
5418;SDS011;2732;52.092;11.556;2022-10-28T16:55:25;27.17;;;8.87;;
5418;SDS011;2732;52.092;11.556;2022-10-28T17:00:26;16.80;;;3.50;;
5418;SDS011;2732;52.092;11.556;2022-10-28T17:05:27;13.70;;;2.90;;
5418;SDS011;2732;52.092;11.556;2022-10-28T17:10:28;11.77;;;3.13;;
5418;SDS011;2732;52.092;11.556;2022-10-28T17:15:28;10.30;;;2.90;;
5418;SDS011;2732;52.092;11.556;2022-10-28T17:20:29;16.43;;;3.03;;
5418;SDS011;2732;52.092;11.556;2022-10-28T17:25:30;10.73;;;3.07;;
5418;SDS011;2732;52.092;11.556;2022-10-28T17:30:31;9.67;;;2.77;;
5418;SDS011;2732;52.092;11.556;2022-10-28T17:35:32;9.50;;;2.87;;
5418;SDS011;2732;52.092;11.556;2022-10-28T17:40:32;10.87;;;3.20;;
5418;SDS011;2732;52.092;11.556;2022-10-28T17:45:33;5.13;;;2.30;;
5418;SDS011;2732;52.092;11.556;2022-10-28T17:50:34;6.40;;;3.07;;
5418;SDS011;2732;52.092;11.556;2022-10-28T17:55:34;11.40;;;3.10;;
5418;SDS011;2732;52.092;11.556;2022-10-28T18:00:35;18.27;;;3.30;;
5418;SDS011;2732;52.092;11.556;2022-10-28T18:05:36;5.70;;;2.73;;
5418;SDS011;2732;52.092;11.556;2022-10-28T18:10:36;14.13;;;3.37;;
5418;SDS011;2732;52.092;11.556;2022-10-28T18:15:37;9.07;;;2.80;;
5418;SDS011;2732;52.092;11.556;2022-10-28T18:20:38;14.60;;;2.50;;
5418;SDS011;2732;52.092;11.556;2022-10-28T18:25:38;13.67;;;3.10;;
5418;SDS011;2732;52.092;11.556;2022-10-28T18:30:39;9.23;;;2.40;;
5418;SDS011;2732;52.092;11.556;2022-10-28T18:35:40;16.33;;;2.77;;
5418;SDS011;2732;52.092;11.556;2022-10-28T18:40:45;10.77;;;2.60;;
5418;SDS011;2732;52.092;11.556;2022-10-28T18:45:46;13.03;;;2.97;;
5418;SDS011;2732;52.092;11.556;2022-10-28T18:50:54;6.03;;;2.40;;
5418;SDS011;2732;52.092;11.556;2022-10-28T18:55:59;18.27;;;3.40;;
5418;SDS011;2732;52.092;11.556;2022-10-28T19:01:10;12.77;;;3.87;;
5418;SDS011;2732;52.092;11.556;2022-10-28T19:06:15;6.57;;;2.70;;
5418;SDS011;2732;52.092;11.556;2022-10-28T19:11:16;10.10;;;2.73;;
5418;SDS011;2732;52.092;11.556;2022-10-28T19:16:17;13.63;;;3.63;;
5418;SDS011;2732;52.092;11.556;2022-10-28T19:21:18;12.10;;;3.17;;
5418;SDS011;2732;52.092;11.556;2022-10-28T19:26:18;12.70;;;3.40;;
5418;SDS011;2732;52.092;11.556;2022-10-28T19:31:20;14.87;;;3.87;;
5418;SDS011;2732;52.092;11.556;2022-10-28T19:36:24;12.33;;;3.23;;
5418;SDS011;2732;52.092;11.556;2022-10-28T19:41:28;20.57;;;2.90;;
5418;SDS011;2732;52.092;11.556;2022-10-28T19:46:30;11.17;;;3.10;;
5418;SDS011;2732;52.092;11.556;2022-10-28T19:51:39;9.50;;;2.70;;
5418;SDS011;2732;52.092;11.556;2022-10-28T19:56:40;12.43;;;3.83;;
5418;SDS011;2732;52.092;11.556;2022-10-28T20:01:46;8.10;;;3.00;;
5418;SDS011;2732;52.092;11.556;2022-10-28T20:06:48;11.80;;;3.10;;
5418;SDS011;2732;52.092;11.556;2022-10-28T20:11:49;9.27;;;2.80;;
5418;SDS011;2732;52.092;11.556;2022-10-28T20:16:50;9.67;;;3.10;;
5418;SDS011;2732;52.092;11.556;2022-10-28T20:21:50;12.63;;;3.20;;
5418;SDS011;2732;52.092;11.556;2022-10-28T20:26:51;13.77;;;3.43;;
5418;SDS011;2732;52.092;11.556;2022-10-28T20:31:52;18.63;;;3.90;;
5418;SDS011;2732;52.092;11.556;2022-10-28T20:36:52;9.07;;;3.17;;
5418;SDS011;2732;52.092;11.556;2022-10-28T20:41:53;10.10;;;3.57;;
5418;SDS011;2732;52.092;11.556;2022-10-28T20:46:54;14.10;;;4.13;;
5418;SDS011;2732;52.092;11.556;2022-10-28T20:51:54;14.60;;;3.20;;
5418;SDS011;2732;52.092;11.556;2022-10-28T20:56:55;9.83;;;4.60;;
5418;SDS011;2732;52.092;11.556;2022-10-28T21:01:56;12.20;;;3.37;;
5418;SDS011;2732;52.092;11.556;2022-10-28T21:06:56;8.70;;;3.03;;
5418;SDS011;2732;52.092;11.556;2022-10-28T21:11:57;16.30;;;2.73;;
5418;SDS011;2732;52.092;11.556;2022-10-28T21:16:57;13.40;;;3.10;;
5418;SDS011;2732;52.092;11.556;2022-10-28T21:22:00;9.73;;;3.50;;
5418;SDS011;2732;52.092;11.556;2022-10-28T21:27:01;7.10;;;3.17;;
5418;SDS011;2732;52.092;11.556;2022-10-28T21:32:02;15.50;;;2.87;;
5418;SDS011;2732;52.092;11.556;2022-10-28T21:37:02;9.80;;;3.60;;
5418;SDS011;2732;52.092;11.556;2022-10-28T21:42:03;16.03;;;3.87;;
5418;SDS011;2732;52.092;11.556;2022-10-28T21:47:04;14.67;;;4.60;;
5418;SDS011;2732;52.092;11.556;2022-10-28T21:52:05;20.23;;;4.03;;
5418;SDS011;2732;52.092;11.556;2022-10-28T21:57:06;11.93;;;4.10;;
5418;SDS011;2732;52.092;11.556;2022-10-28T22:02:07;13.33;;;3.17;;
5418;SDS011;2732;52.092;11.556;2022-10-28T22:07:07;23.43;;;3.53;;
5418;SDS011;2732;52.092;11.556;2022-10-28T22:12:08;17.53;;;3.63;;
5418;SDS011;2732;52.092;11.556;2022-10-28T22:17:09;13.03;;;4.90;;
5418;SDS011;2732;52.092;11.556;2022-10-28T22:22:11;10.40;;;3.57;;
5418;SDS011;2732;52.092;11.556;2022-10-28T22:27:12;14.40;;;4.17;;
5418;SDS011;2732;52.092;11.556;2022-10-28T22:32:13;15.60;;;3.60;;
5418;SDS011;2732;52.092;11.556;2022-10-28T22:37:14;21.60;;;4.20;;
5418;SDS011;2732;52.092;11.556;2022-10-28T22:42:14;15.57;;;3.27;;
5418;SDS011;2732;52.092;11.556;2022-10-28T22:47:15;8.70;;;3.80;;
5418;SDS011;2732;52.092;11.556;2022-10-28T22:52:16;11.97;;;4.10;;
5418;SDS011;2732;52.092;11.556;2022-10-28T22:57:16;19.37;;;3.70;;
5418;SDS011;2732;52.092;11.556;2022-10-28T23:02:17;9.57;;;3.47;;
5418;SDS011;2732;52.092;11.556;2022-10-28T23:07:18;14.63;;;3.63;;
5418;SDS011;2732;52.092;11.556;2022-10-28T23:12:18;13.60;;;3.63;;
5418;SDS011;2732;52.092;11.556;2022-10-28T23:17:19;11.60;;;4.10;;
5418;SDS011;2732;52.092;11.556;2022-10-28T23:22:20;16.90;;;4.87;;
5418;SDS011;2732;52.092;11.556;2022-10-28T23:27:20;8.33;;;3.87;;
5418;SDS011;2732;52.092;11.556;2022-10-28T23:32:21;18.73;;;4.10;;
5418;SDS011;2732;52.092;11.556;2022-10-28T23:37:22;12.33;;;4.10;;
5418;SDS011;2732;52.092;11.556;2022-10-28T23:42:22;15.23;;;5.13;;
5418;SDS011;2732;52.092;11.556;2022-10-28T23:47:23;15.50;;;4.70;;
5418;SDS011;2732;52.092;11.556;2022-10-28T23:52:24;22.00;;;5.07;;
5418;SDS011;2732;52.092;11.556;2022-10-28T23:57:24;10.60;;;4.20;;
